createdAt,value
2017-11-29T00:00:59.747Z,98914.77
2017-11-29T00:03:26.186Z,98920.81
2017-11-29T00:05:52.734Z,98923.53
2017-11-29T00:08:19.251Z,98922.55
2017-11-29T00:10:46.408Z,98925.16
2017-11-29T00:13:12.843Z,98920.41
2017-11-29T00:15:39.307Z,98934.03
2017-11-29T00:18:05.811Z,98926.56
2017-11-29T00:20:32.376Z,98925.98
2017-11-29T00:22:58.887Z,98932.63
2017-11-29T00:25:25.434Z,98939.19
2017-11-29T00:27:52.583Z,98939.12
2017-11-29T00:30:19.010Z,98943.84
2017-11-29T00:32:45.444Z,98944.59
2017-11-29T00:35:11.878Z,98942.27
2017-11-29T00:37:38.332Z,98941.38
2017-11-29T00:40:04.859Z,98937.86
2017-11-29T00:42:31.284Z,98936.56
2017-11-29T00:44:58.538Z,98936.78
2017-11-29T00:47:24.931Z,98930.62
2017-11-29T00:49:51.408Z,98931.41
2017-11-29T00:52:17.952Z,98937.89
2017-11-29T00:54:44.379Z,98941.28
2017-11-29T00:57:10.824Z,98935.60
2017-11-29T00:59:37.251Z,98946.29
2017-11-29T01:02:04.501Z,98940.47
2017-11-29T01:04:30.936Z,98942.67
2017-11-29T01:06:57.375Z,98944.78
2017-11-29T01:09:23.786Z,98940.75
2017-11-29T01:11:50.206Z,98927.58
2017-11-29T01:14:16.675Z,98936.27
2017-11-29T01:16:43.109Z,98938.38
2017-11-29T01:19:10.368Z,98935.27
2017-11-29T01:21:36.806Z,98928.86
2017-11-29T01:24:03.349Z,98923.47
2017-11-29T01:26:29.879Z,98923.34
2017-11-29T01:28:56.416Z,98921.02
2017-11-29T01:31:22.850Z,98927.59
2017-11-29T01:33:49.279Z,98926.09
2017-11-29T01:36:16.521Z,98921.11
2017-11-29T01:38:42.965Z,98922.06
2017-11-29T01:41:09.400Z,98925.68
2017-11-29T01:43:35.835Z,98921.88
2017-11-29T01:46:02.229Z,98922.70
2017-11-29T01:48:28.715Z,98921.83
2017-11-29T01:50:55.252Z,98928.83
2017-11-29T01:53:22.495Z,98918.72
2017-11-29T01:55:48.930Z,98919.72
2017-11-29T01:58:15.388Z,98925.82
2017-11-29T02:00:41.909Z,98919.88
2017-11-29T02:03:08.446Z,98923.85
2017-11-29T02:05:34.982Z,98920.47
2017-11-29T02:08:01.409Z,98918.06
2017-11-29T02:10:28.663Z,98907.42
2017-11-29T02:12:55.103Z,98912.04
2017-11-29T02:15:21.648Z,98911.45
2017-11-29T02:17:48.069Z,98900.66
2017-11-29T02:20:14.504Z,98898.18
2017-11-29T02:22:40.939Z,98901.24
2017-11-29T02:25:07.373Z,98904.03
2017-11-29T02:27:34.532Z,98900.41
2017-11-29T02:30:01.070Z,98896.58
2017-11-29T02:32:27.496Z,98896.30
2017-11-29T02:34:54.040Z,98892.03
2017-11-29T02:37:20.578Z,98889.89
2017-11-29T02:39:47.004Z,98882.80
2017-11-29T02:42:13.457Z,98881.39
2017-11-29T02:44:40.727Z,98889.91
2017-11-29T02:47:07.231Z,98889.66
2017-11-29T02:49:33.634Z,98891.12
2017-11-29T02:52:00.060Z,98880.47
2017-11-29T02:54:26.532Z,98874.98
2017-11-29T02:56:53.078Z,98876.86
2017-11-29T02:59:19.607Z,98877.55
2017-11-29T03:01:46.553Z,98881.12
2017-11-29T03:04:12.988Z,98876.95
2017-11-29T03:06:39.437Z,98878.11
2017-11-29T03:09:05.878Z,98887.70
2017-11-29T03:11:32.393Z,98882.14
2017-11-29T03:13:58.836Z,98887.06
2017-11-29T03:16:25.364Z,98890.00
2017-11-29T03:18:52.729Z,98888.98
2017-11-29T03:21:19.267Z,98894.03
2017-11-29T03:23:45.805Z,98894.82
2017-11-29T03:26:12.187Z,98887.27
2017-11-29T03:28:38.678Z,98882.97
2017-11-29T03:31:05.101Z,98891.62
2017-11-29T03:33:31.554Z,98898.95
2017-11-29T03:35:58.797Z,98890.25
2017-11-29T03:38:25.325Z,98900.45
2017-11-29T03:40:51.767Z,98901.97
2017-11-29T03:43:18.171Z,98904.39
2017-11-29T03:45:44.738Z,98900.13
2017-11-29T03:48:11.276Z,98903.25
2017-11-29T03:50:37.683Z,98906.59
2017-11-29T03:53:04.956Z,98908.89
2017-11-29T03:55:31.396Z,98905.81
2017-11-29T03:57:57.829Z,98909.38
2017-11-29T04:00:24.219Z,98906.88
2017-11-29T04:02:50.698Z,98905.91
2017-11-29T04:05:17.087Z,98897.66
2017-11-29T04:07:43.571Z,98893.36
2017-11-29T04:10:10.613Z,98903.84
2017-11-29T04:12:37.050Z,98900.13
2017-11-29T04:15:03.595Z,98905.13
2017-11-29T04:17:30.020Z,98876.00
2017-11-29T04:19:56.566Z,98899.59
2017-11-29T04:22:22.991Z,98892.06
2017-11-29T04:24:49.427Z,98894.39
2017-11-29T04:27:16.577Z,98895.13
2017-11-29T04:29:43.140Z,98898.28
2017-11-29T04:32:09.640Z,98902.59
2017-11-29T04:34:36.088Z,98900.98
2017-11-29T04:37:02.611Z,98901.36
2017-11-29T04:39:29.080Z,98906.29
2017-11-29T04:41:55.599Z,98901.11
2017-11-29T04:44:22.743Z,98907.80
2017-11-29T04:46:49.177Z,98906.52
2017-11-29T04:49:15.725Z,98907.52
2017-11-29T04:51:42.107Z,98906.58
2017-11-29T04:54:08.576Z,98905.09
2017-11-29T04:56:35.019Z,98907.24
2017-11-29T04:59:01.455Z,98916.70
2017-11-29T05:01:28.604Z,98918.55
2017-11-29T05:03:55.152Z,98914.16
2017-11-29T05:06:21.577Z,98901.04
2017-11-29T05:08:48.212Z,98913.61
2017-11-29T05:11:14.650Z,98912.59
2017-11-29T05:13:41.197Z,98912.61
2017-11-29T05:16:07.741Z,98917.69
2017-11-29T05:18:34.773Z,98914.56
2017-11-29T05:21:01.208Z,98917.47
2017-11-29T05:23:27.644Z,98923.06
2017-11-29T05:25:54.148Z,98931.83
2017-11-29T05:28:20.622Z,98930.73
2017-11-29T05:30:47.007Z,98940.66
2017-11-29T05:33:13.474Z,98942.31
2017-11-29T05:35:40.641Z,98939.91
2017-11-29T05:38:07.157Z,98944.55
2017-11-29T05:40:33.606Z,98930.50
2017-11-29T05:43:00.138Z,98936.08
2017-11-29T05:45:26.679Z,98940.06
2017-11-29T05:47:53.245Z,98943.91
2017-11-29T05:50:19.651Z,98966.03
2017-11-29T05:52:46.863Z,98945.17
2017-11-29T05:55:13.354Z,98957.58
2017-11-29T05:57:39.732Z,98961.48
2017-11-29T06:00:06.175Z,98962.59
2017-11-29T06:02:32.644Z,98965.70
2017-11-29T06:04:59.079Z,98962.75
2017-11-29T06:07:25.513Z,98958.58
2017-11-29T06:09:52.621Z,98965.80
2017-11-29T06:12:19.099Z,98954.52
2017-11-29T06:14:45.637Z,98964.77
2017-11-29T06:17:12.029Z,98967.03
2017-11-29T06:19:38.504Z,98963.69
2017-11-29T06:22:04.938Z,98974.06
2017-11-29T06:24:31.373Z,98972.82
2017-11-29T06:26:58.637Z,98966.42
2017-11-29T06:29:25.062Z,98983.29
2017-11-29T06:31:51.598Z,98970.54
2017-11-29T06:34:19.057Z,98948.98
2017-11-29T06:36:45.659Z,98971.95
2017-11-29T06:39:12.225Z,98980.13
2017-11-29T06:41:38.680Z,98973.52
2017-11-29T06:44:05.169Z,98981.64
2017-11-29T06:46:31.638Z,98994.34
2017-11-29T06:48:58.390Z,98988.72
2017-11-29T06:51:25.638Z,98985.86
2017-11-29T06:53:52.163Z,98990.41
2017-11-29T06:56:18.613Z,98992.80
2017-11-29T06:58:45.663Z,98987.22
2017-11-29T07:01:12.076Z,98984.30
2017-11-29T07:03:38.455Z,98987.19
2017-11-29T07:06:04.902Z,98978.84
2017-11-29T07:08:31.815Z,98977.75
2017-11-29T07:10:58.341Z,98946.17
2017-11-29T07:13:24.779Z,98974.26
2017-11-29T07:15:51.614Z,98971.41
2017-11-29T07:18:18.574Z,98970.59
2017-11-29T07:20:45.050Z,98964.20
2017-11-29T07:23:11.496Z,98970.25
2017-11-29T07:25:38.381Z,98966.02
2017-11-29T07:28:04.930Z,98974.48
2017-11-29T07:30:31.474Z,98973.51
2017-11-29T07:32:58.709Z,98974.41
2017-11-29T07:35:25.143Z,98972.45
2017-11-29T07:37:51.681Z,98975.23
2017-11-29T07:40:18.114Z,98979.27
2017-11-29T07:42:44.660Z,98964.36
2017-11-29T07:45:11.092Z,98965.08
2017-11-29T07:47:37.622Z,98965.07
2017-11-29T07:50:04.058Z,98964.83
2017-11-29T07:52:30.492Z,98959.22
2017-11-29T07:54:56.927Z,98962.27
2017-11-29T07:57:24.220Z,98967.05
2017-11-29T07:59:50.748Z,98960.30
2017-11-29T08:02:17.237Z,98960.52
2017-11-29T08:04:43.698Z,98963.81
2017-11-29T08:07:10.361Z,98965.06
2017-11-29T08:09:36.945Z,98961.86
2017-11-29T08:12:03.413Z,98966.89
2017-11-29T08:14:29.948Z,98976.87
2017-11-29T08:16:56.485Z,98976.05
2017-11-29T08:19:23.022Z,98974.48
2017-11-29T08:21:49.559Z,98973.41
2017-11-29T08:24:17.129Z,98971.80
2017-11-29T08:26:43.751Z,98976.68
2017-11-29T08:29:10.242Z,98980.14
2017-11-29T08:31:36.619Z,98977.64
2017-11-29T08:34:03.132Z,98982.55
2017-11-29T08:36:29.591Z,98972.59
2017-11-29T08:38:56.128Z,98968.78
2017-11-29T08:41:22.669Z,98971.27
2017-11-29T08:43:49.613Z,98963.17
2017-11-29T08:46:16.049Z,98970.60
2017-11-29T08:48:42.540Z,98968.25
2017-11-29T08:51:09.183Z,98972.42
2017-11-29T08:53:35.657Z,98972.48
2017-11-29T08:56:03.015Z,98963.45
2017-11-29T08:58:29.555Z,98955.99
2017-11-29T09:00:56.000Z,98956.98
2017-11-29T09:03:22.914Z,98956.03
2017-11-29T09:05:49.341Z,98955.64
2017-11-29T09:08:15.904Z,98955.93
2017-11-29T09:10:42.651Z,98953.00
2017-11-29T09:13:09.387Z,98956.62
2017-11-29T09:15:35.821Z,98961.85
2017-11-29T09:18:02.294Z,98966.13
2017-11-29T09:20:28.998Z,98962.25
2017-11-29T09:22:55.640Z,98956.64
2017-11-29T09:25:22.235Z,98955.05
2017-11-29T09:27:48.821Z,98949.55
2017-11-29T09:30:15.658Z,98940.17
2017-11-29T09:32:42.196Z,98938.41
2017-11-29T09:35:08.688Z,98942.16
2017-11-29T09:37:35.165Z,98945.62
2017-11-29T09:40:01.610Z,98932.80
2017-11-29T09:42:28.044Z,98941.87
2017-11-29T09:44:54.880Z,98938.94
2017-11-29T09:47:21.315Z,98934.80
2017-11-29T09:49:47.750Z,98934.24
2017-11-29T09:52:14.185Z,98929.95
2017-11-29T09:54:40.626Z,98921.09
2017-11-29T09:57:07.154Z,98906.09
2017-11-29T09:59:33.588Z,98915.53
2017-11-29T10:02:00.024Z,98914.34
2017-11-29T10:04:26.460Z,98912.98
2017-11-29T10:06:52.892Z,98920.47
2017-11-29T10:09:19.327Z,98906.57
2017-11-29T10:11:46.048Z,98904.97
2017-11-29T10:14:12.490Z,98909.91
2017-11-29T10:16:38.917Z,98905.48
2017-11-29T10:19:05.475Z,98901.31
2017-11-29T10:21:31.909Z,98903.16
2017-11-29T10:23:58.292Z,98906.48
2017-11-29T10:26:25.077Z,98896.30
2017-11-29T10:28:51.669Z,98899.83
2017-11-29T10:31:18.159Z,98899.43
2017-11-29T10:33:45.352Z,98890.88
2017-11-29T10:36:11.806Z,98898.09
2017-11-29T10:38:38.691Z,98896.87
2017-11-29T10:41:05.742Z,98898.21
2017-11-29T10:43:32.140Z,98891.88
2017-11-29T10:45:58.759Z,98894.11
2017-11-29T10:48:25.556Z,98892.08
2017-11-29T10:50:52.815Z,98889.19
2017-11-29T10:53:19.863Z,98879.65
2017-11-29T10:55:46.600Z,98883.92
2017-11-29T10:58:13.199Z,98880.53
2017-11-29T11:00:39.778Z,98878.42
2017-11-29T11:03:07.253Z,98883.97
2017-11-29T11:05:33.774Z,98874.20
2017-11-29T11:08:00.225Z,98877.29
2017-11-29T11:10:26.848Z,98879.70
2017-11-29T11:12:53.615Z,98872.61
2017-11-29T11:15:20.638Z,98867.72
2017-11-29T11:17:47.343Z,98875.56
2017-11-29T11:20:14.762Z,98878.08
2017-11-29T11:22:42.002Z,98871.16
2017-11-29T11:25:09.086Z,98871.72
2017-11-29T11:27:35.677Z,98873.91
2017-11-29T11:30:03.474Z,98876.83
2017-11-29T11:32:30.083Z,98871.75
2017-11-29T11:34:56.619Z,98869.84
2017-11-29T11:37:23.467Z,98866.95
2017-11-29T11:39:50.108Z,98859.63
2017-11-29T11:42:16.642Z,98861.23
2017-11-29T11:44:43.280Z,98860.34
2017-11-29T11:47:09.717Z,98862.72
2017-11-29T11:49:36.150Z,98870.75
2017-11-29T11:52:03.387Z,98856.56
2017-11-29T11:54:30.313Z,98844.90
2017-11-29T11:56:56.783Z,98835.13
2017-11-29T11:59:23.321Z,98853.65
2017-11-29T12:01:49.852Z,98856.38
2017-11-29T12:04:16.498Z,98846.77
2017-11-29T12:06:42.893Z,98847.09
2017-11-29T12:09:09.368Z,98841.23
2017-11-29T12:11:36.419Z,98834.57
2017-11-29T12:14:02.952Z,98836.83
2017-11-29T12:16:29.903Z,98796.03
2017-11-29T12:18:56.427Z,98830.69
2017-11-29T12:21:22.897Z,98826.18
2017-11-29T12:23:49.510Z,98823.79
2017-11-29T12:26:16.052Z,98826.34
2017-11-29T12:28:42.584Z,98831.34
2017-11-29T12:31:09.440Z,98818.58
2017-11-29T12:33:35.950Z,98817.67
2017-11-29T12:36:02.400Z,98816.23
2017-11-29T12:38:28.980Z,98811.07
2017-11-29T12:40:55.478Z,98814.01
2017-11-29T12:43:22.010Z,98815.61
2017-11-29T12:45:48.445Z,98808.82
2017-11-29T12:48:15.088Z,98811.97
2017-11-29T12:50:41.501Z,98808.58
2017-11-29T12:53:07.953Z,98817.38
2017-11-29T12:55:34.371Z,98813.36
2017-11-29T12:58:00.953Z,98818.88
2017-11-29T13:00:27.463Z,98814.27
2017-11-29T13:02:54.580Z,98812.11
2017-11-29T13:05:20.952Z,98807.25
2017-11-29T13:07:47.339Z,98807.33
2017-11-29T13:10:14.179Z,98793.61
2017-11-29T13:12:40.658Z,98799.41
2017-11-29T13:15:07.094Z,98806.52
2017-11-29T13:17:33.587Z,98813.56
2017-11-29T13:20:00.475Z,98812.81
2017-11-29T13:22:26.930Z,98814.53
2017-11-29T13:24:53.855Z,98810.65
2017-11-29T13:27:20.292Z,98828.02
2017-11-29T13:29:46.726Z,98820.20
2017-11-29T13:32:13.170Z,98816.19
2017-11-29T13:34:39.593Z,98812.22
2017-11-29T13:37:05.988Z,98823.39
2017-11-29T13:39:32.470Z,98824.28
2017-11-29T13:41:58.898Z,98825.72
2017-11-29T13:44:25.435Z,98827.33
2017-11-29T13:46:51.870Z,98818.58
2017-11-29T13:49:18.303Z,98829.94
2017-11-29T13:51:44.743Z,98829.99
2017-11-29T13:54:11.467Z,98829.53
2017-11-29T13:56:37.915Z,98825.75
2017-11-29T13:59:04.760Z,98827.84
2017-11-29T14:01:31.399Z,98838.86
2017-11-29T14:03:57.936Z,98837.22
2017-11-29T14:06:24.371Z,98847.41
2017-11-29T14:08:50.804Z,98851.83
2017-11-29T14:11:17.443Z,98847.84
2017-11-29T14:13:43.934Z,98857.48
2017-11-29T14:16:10.424Z,98842.08
2017-11-29T14:18:37.363Z,98852.47
2017-11-29T14:21:03.902Z,98851.65
2017-11-29T14:23:30.436Z,98849.12
2017-11-29T14:25:56.871Z,98859.16
2017-11-29T14:28:23.612Z,98858.13
2017-11-29T14:30:50.048Z,98868.00
2017-11-29T14:33:16.585Z,98866.52
2017-11-29T14:35:43.428Z,98867.80
2017-11-29T14:38:09.964Z,98869.12
2017-11-29T14:40:36.404Z,98861.92
2017-11-29T14:43:02.857Z,98867.53
2017-11-29T14:45:29.360Z,98887.47
2017-11-29T14:47:55.907Z,98874.05
2017-11-29T14:50:22.547Z,98872.45
2017-11-29T14:52:48.981Z,98860.40
2017-11-29T14:55:15.417Z,98865.38
2017-11-29T14:57:41.952Z,98870.70
2017-11-29T15:00:08.391Z,98873.30
2017-11-29T15:02:34.925Z,98877.34
2017-11-29T15:05:01.875Z,98869.22
2017-11-29T15:07:28.409Z,98876.86
2017-11-29T15:09:54.844Z,98876.09
2017-11-29T15:12:21.235Z,98865.23
2017-11-29T15:14:47.917Z,98859.25
2017-11-29T15:17:14.791Z,98876.62
2017-11-29T15:19:41.355Z,98869.38
2017-11-29T15:22:08.144Z,98868.42
2017-11-29T15:24:35.509Z,98882.75
2017-11-29T15:27:02.260Z,98893.02
2017-11-29T15:29:28.983Z,98890.42
2017-11-29T15:31:55.365Z,98898.28
2017-11-29T15:34:21.853Z,98903.59
2017-11-29T15:36:48.695Z,98911.47
2017-11-29T15:39:15.115Z,98908.61
2017-11-29T15:41:41.540Z,98906.88
2017-11-29T15:44:08.508Z,98902.42
2017-11-29T15:46:34.948Z,98904.09
2017-11-29T15:49:01.443Z,98909.96
2017-11-29T15:51:28.327Z,98910.32
2017-11-29T15:53:54.771Z,98910.47
2017-11-29T15:56:21.196Z,98912.88
2017-11-29T15:58:48.146Z,98902.39
2017-11-29T16:01:14.580Z,98904.14
2017-11-29T16:03:41.015Z,98909.34
2017-11-29T16:06:08.169Z,98917.61
2017-11-29T16:08:34.702Z,98921.59
2017-11-29T16:11:01.238Z,98922.31
2017-11-29T16:13:27.659Z,98924.31
2017-11-29T16:15:54.098Z,98922.17
2017-11-29T16:18:20.541Z,98926.27
2017-11-29T16:20:46.932Z,98932.65
2017-11-29T16:23:14.187Z,98937.42
2017-11-29T16:25:40.664Z,98948.47
2017-11-29T16:28:07.098Z,98958.83
2017-11-29T16:30:33.635Z,98950.23
2017-11-29T16:33:00.069Z,98945.94
2017-11-29T16:35:26.562Z,98946.58
2017-11-29T16:37:53.033Z,98936.81
2017-11-29T16:40:20.195Z,98934.37
2017-11-29T16:42:46.647Z,98939.14
2017-11-29T16:45:13.019Z,98946.44
2017-11-29T16:47:39.495Z,98949.73
2017-11-29T16:50:05.932Z,98941.94
2017-11-29T16:52:32.370Z,98933.32
2017-11-29T16:54:58.800Z,98943.46
2017-11-29T16:57:26.073Z,98941.56
2017-11-29T16:59:52.610Z,98933.11
2017-11-29T17:02:19.031Z,98935.20
2017-11-29T17:04:45.465Z,98936.10
2017-11-29T17:07:11.895Z,98938.57
2017-11-29T17:09:38.375Z,98940.02
2017-11-29T17:12:04.865Z,98941.70
2017-11-29T17:14:31.916Z,98940.75
2017-11-29T17:16:58.370Z,98938.81
2017-11-29T17:19:24.886Z,98943.02
2017-11-29T17:21:51.321Z,98940.77
2017-11-29T17:24:17.758Z,98941.80
2017-11-29T17:26:44.192Z,98944.84
2017-11-29T17:29:10.624Z,98949.86
2017-11-29T17:31:37.879Z,98955.40
2017-11-29T17:34:04.313Z,98947.23
2017-11-29T17:36:30.749Z,98947.86
2017-11-29T17:38:57.147Z,98953.84
2017-11-29T17:41:23.575Z,98951.61
2017-11-29T17:43:50.154Z,98956.13
2017-11-29T17:46:16.588Z,98948.58
2017-11-29T17:48:43.740Z,98949.30
2017-11-29T17:51:10.177Z,98950.19
2017-11-29T17:53:36.609Z,98950.13
2017-11-29T17:56:03.042Z,98955.89
2017-11-29T17:58:29.479Z,98957.16
2017-11-29T18:00:56.015Z,98926.67
2017-11-29T18:03:22.459Z,98959.03
2017-11-29T18:05:49.594Z,98960.59
2017-11-29T18:08:16.036Z,98959.16
2017-11-29T18:10:42.470Z,98962.70
2017-11-29T18:13:08.870Z,98960.06
2017-11-29T18:15:35.336Z,98956.92
2017-11-29T18:18:01.773Z,98956.88
2017-11-29T18:20:28.209Z,98957.31
2017-11-29T18:22:55.463Z,98960.41
2017-11-29T18:25:21.897Z,98956.47
2017-11-29T18:27:48.332Z,98958.55
2017-11-29T18:30:14.769Z,98963.08
2017-11-29T18:32:41.199Z,98961.12
2017-11-29T18:35:07.641Z,98971.77
2017-11-29T18:37:34.175Z,98972.50
2017-11-29T18:40:01.324Z,98981.55
2017-11-29T18:42:27.861Z,98980.95
2017-11-29T18:44:54.399Z,98980.23
2017-11-29T18:47:20.836Z,98980.17
2017-11-29T18:49:47.266Z,98980.63
2017-11-29T18:52:13.712Z,98985.94
2017-11-29T18:54:40.228Z,98990.14
2017-11-29T18:57:07.397Z,98984.99
2017-11-29T18:59:33.830Z,98990.73
2017-11-29T19:02:00.243Z,98983.48
2017-11-29T19:04:26.657Z,98986.95
2017-11-29T19:06:53.128Z,98966.32
2017-11-29T19:09:19.571Z,98987.41
2017-11-29T19:11:46.103Z,98987.58
2017-11-29T19:14:13.254Z,98979.36
2017-11-29T19:16:39.708Z,98985.82
2017-11-29T19:19:06.194Z,98990.09
2017-11-29T19:21:32.657Z,98993.45
2017-11-29T19:23:59.093Z,98991.16
2017-11-29T19:26:25.650Z,98983.87
2017-11-29T19:28:52.168Z,98980.13
2017-11-29T19:31:19.325Z,98983.03
2017-11-29T19:33:45.859Z,98982.28
2017-11-29T19:36:12.295Z,98976.48
2017-11-29T19:38:38.748Z,98970.16
2017-11-29T19:41:05.264Z,98972.05
2017-11-29T19:43:31.703Z,98971.92
2017-11-29T19:45:58.133Z,98978.20
2017-11-29T19:48:25.387Z,98980.28
2017-11-29T19:50:51.832Z,98976.24
2017-11-29T19:53:18.356Z,98975.33
2017-11-29T19:55:44.791Z,98985.80
2017-11-29T19:58:11.224Z,98992.69
2017-11-29T20:00:37.659Z,98986.91
2017-11-29T20:03:04.093Z,98971.07
2017-11-29T20:05:31.449Z,98974.95
2017-11-29T20:07:57.884Z,98965.62
2017-11-29T20:10:24.320Z,98971.98
2017-11-29T20:12:50.756Z,98960.81
2017-11-29T20:15:17.189Z,98961.33
2017-11-29T20:17:43.623Z,98951.42
2017-11-29T20:20:10.058Z,98956.87
2017-11-29T20:22:37.212Z,98960.19
2017-11-29T20:25:03.646Z,98957.80
2017-11-29T20:27:30.181Z,98963.97
2017-11-29T20:29:56.598Z,98968.44
2017-11-29T20:32:23.041Z,98965.79
2017-11-29T20:34:49.485Z,98962.92
2017-11-29T20:37:15.920Z,98946.43
2017-11-29T20:39:43.165Z,98948.92
2017-11-29T20:42:09.605Z,98953.09
2017-11-29T20:44:36.041Z,98955.11
2017-11-29T20:47:02.475Z,98957.47
2017-11-29T20:49:28.913Z,98961.89
2017-11-29T20:51:55.450Z,98955.64
2017-11-29T20:54:21.875Z,98961.98
2017-11-29T20:56:49.138Z,98950.85
2017-11-29T20:59:15.570Z,98948.63
2017-11-29T21:01:42.004Z,98935.55
2017-11-29T21:04:08.442Z,98928.30
2017-11-29T21:06:34.874Z,98928.45
2017-11-29T21:09:01.309Z,98932.34
2017-11-29T21:11:27.743Z,98935.40
2017-11-29T21:13:54.927Z,98930.29
2017-11-29T21:16:21.432Z,98932.72
2017-11-29T21:18:47.866Z,98935.78
2017-11-29T21:21:14.301Z,98935.63
2017-11-29T21:23:40.735Z,98933.03
2017-11-29T21:26:07.172Z,98931.86
2017-11-29T21:28:33.706Z,98929.46
2017-11-29T21:31:00.857Z,98927.84
2017-11-29T21:33:27.394Z,98926.42
2017-11-29T21:35:53.828Z,98925.31
2017-11-29T21:38:20.223Z,98930.11
2017-11-29T21:40:46.698Z,98927.34
2017-11-29T21:43:13.133Z,98933.81
2017-11-29T21:45:39.669Z,98930.66
2017-11-29T21:48:06.821Z,98930.22
2017-11-29T21:50:33.256Z,98926.69
2017-11-29T21:52:59.692Z,98929.50
2017-11-29T21:55:26.126Z,98921.61
2017-11-29T21:57:52.561Z,98925.42
2017-11-29T22:00:19.002Z,98927.16
2017-11-29T22:02:45.424Z,98916.66
2017-11-29T22:05:12.590Z,98920.10
2017-11-29T22:07:39.107Z,98913.83
2017-11-29T22:10:05.550Z,98901.88
2017-11-29T22:12:31.985Z,98905.41
2017-11-29T22:14:58.421Z,98904.53
2017-11-29T22:17:24.811Z,98910.39
2017-11-29T22:19:51.288Z,98905.34
2017-11-29T22:22:18.441Z,98902.83
2017-11-29T22:24:44.874Z,98897.38
2017-11-29T22:27:11.309Z,98901.36
2017-11-29T22:29:37.745Z,98894.20
2017-11-29T22:32:04.180Z,98897.03
2017-11-29T22:34:30.613Z,98890.59
2017-11-29T22:36:57.046Z,98880.06
2017-11-29T22:39:24.300Z,98878.67
2017-11-29T22:41:50.735Z,98878.06
2017-11-29T22:44:17.171Z,98880.22
2017-11-29T22:46:43.606Z,98886.81
2017-11-29T22:49:10.064Z,98888.61
2017-11-29T22:51:36.557Z,98893.80
2017-11-29T22:54:02.998Z,98878.55
2017-11-29T22:56:30.164Z,98882.30
2017-11-29T22:58:56.598Z,98872.34
2017-11-29T23:01:23.032Z,98863.48
2017-11-29T23:03:49.467Z,98859.47
2017-11-29T23:06:15.901Z,98864.63
2017-11-29T23:08:42.335Z,98864.05
2017-11-29T23:11:08.770Z,98859.66
2017-11-29T23:13:36.023Z,98856.88
2017-11-29T23:16:02.417Z,98841.89
2017-11-29T23:18:28.892Z,98835.17
2017-11-29T23:20:55.327Z,98840.10
2017-11-29T23:23:21.763Z,98845.61
2017-11-29T23:25:48.197Z,98838.56
2017-11-29T23:28:14.632Z,98835.80
2017-11-29T23:30:41.987Z,98838.77
2017-11-29T23:33:08.425Z,98835.00
2017-11-29T23:35:34.836Z,98832.02
2017-11-29T23:38:01.291Z,98823.53
2017-11-29T23:40:27.727Z,98815.33
2017-11-29T23:42:54.165Z,98803.16
2017-11-29T23:45:20.578Z,98809.49
2017-11-29T23:47:47.745Z,98807.45
2017-11-29T23:50:14.183Z,98814.78
2017-11-29T23:52:40.616Z,98813.88
2017-11-29T23:55:07.050Z,98811.63
2017-11-29T23:57:33.483Z,98819.69
2017-11-29T23:59:59.919Z,98830.15
